sensor_id;sensor_type;location;lat;lon;timestamp;P1;durP1;ratioP1;P2;durP2;ratioP2
26271;SDS011;13997;48.902;12.472;2022-10-16T06:24:46;15.68;;;8.93;;
26271;SDS011;13997;48.902;12.472;2022-10-16T06:27:16;15.38;;;8.95;;
26271;SDS011;13997;48.902;12.472;2022-10-16T06:29:45;11.98;;;8.40;;
26271;SDS011;13997;48.902;12.472;2022-10-16T06:32:11;14.23;;;8.90;;
26271;SDS011;13997;48.902;12.472;2022-10-16T06:34:39;11.73;;;8.10;;
26271;SDS011;13997;48.902;12.472;2022-10-16T06:37:08;12.52;;;7.97;;
26271;SDS011;13997;48.902;12.472;2022-10-16T06:39:34;14.05;;;8.63;;
26271;SDS011;13997;48.902;12.472;2022-10-16T06:42:00;16.30;;;8.05;;
26271;SDS011;13997;48.902;12.472;2022-10-16T06:44:26;13.02;;;8.48;;
26271;SDS011;13997;48.902;12.472;2022-10-16T06:46:52;15.05;;;8.40;;
26271;SDS011;13997;48.902;12.472;2022-10-16T06:49:21;18.98;;;8.82;;
26271;SDS011;13997;48.902;12.472;2022-10-16T06:51:49;11.50;;;7.97;;
26271;SDS011;13997;48.902;12.472;2022-10-16T06:54:18;12.90;;;7.57;;
26271;SDS011;13997;48.902;12.472;2022-10-16T06:56:46;13.05;;;7.65;;
26271;SDS011;13997;48.902;12.472;2022-10-16T06:59:12;15.05;;;7.18;;
26271;SDS011;13997;48.902;12.472;2022-10-16T07:01:43;10.30;;;7.18;;
26271;SDS011;13997;48.902;12.472;2022-10-16T07:04:09;10.80;;;6.72;;
26271;SDS011;13997;48.902;12.472;2022-10-16T07:06:35;16.27;;;7.70;;
26271;SDS011;13997;48.902;12.472;2022-10-16T07:09:02;13.48;;;6.82;;
26271;SDS011;13997;48.902;12.472;2022-10-16T07:11:28;9.30;;;6.82;;
26271;SDS011;13997;48.902;12.472;2022-10-16T07:13:57;9.80;;;6.88;;
26271;SDS011;13997;48.902;12.472;2022-10-16T07:16:24;14.57;;;6.80;;
26271;SDS011;13997;48.902;12.472;2022-10-16T07:18:51;12.93;;;7.78;;
26271;SDS011;13997;48.902;12.472;2022-10-16T07:21:23;12.82;;;7.60;;
26271;SDS011;13997;48.902;12.472;2022-10-16T07:23:52;12.40;;;6.88;;
26271;SDS011;13997;48.902;12.472;2022-10-16T07:26:18;9.30;;;6.65;;
26271;SDS011;13997;48.902;12.472;2022-10-16T07:28:44;12.07;;;6.47;;
26271;SDS011;13997;48.902;12.472;2022-10-16T07:31:11;11.18;;;6.28;;
26271;SDS011;13997;48.902;12.472;2022-10-16T07:33:38;12.95;;;6.80;;
26271;SDS011;13997;48.902;12.472;2022-10-16T07:38:35;11.45;;;6.22;;
26271;SDS011;13997;48.902;12.472;2022-10-16T07:41:02;11.20;;;6.20;;
26271;SDS011;13997;48.902;12.472;2022-10-16T07:43:28;11.85;;;5.25;;
26271;SDS011;13997;48.902;12.472;2022-10-16T07:45:57;9.48;;;5.63;;
26271;SDS011;13997;48.902;12.472;2022-10-16T07:48:23;6.97;;;4.95;;
26271;SDS011;13997;48.902;12.472;2022-10-16T07:50:49;9.10;;;5.30;;
26271;SDS011;13997;48.902;12.472;2022-10-16T07:53:18;8.40;;;5.07;;
26271;SDS011;13997;48.902;12.472;2022-10-16T07:55:46;15.50;;;5.00;;
26271;SDS011;13997;48.902;12.472;2022-10-16T07:58:14;7.13;;;4.57;;
26271;SDS011;13997;48.902;12.472;2022-10-16T08:00:40;7.97;;;4.13;;
26271;SDS011;13997;48.902;12.472;2022-10-16T08:03:07;12.13;;;4.45;;
26271;SDS011;13997;48.902;12.472;2022-10-16T08:05:36;10.73;;;4.40;;
26271;SDS011;13997;48.902;12.472;2022-10-16T08:08:02;10.57;;;4.38;;
26271;SDS011;13997;48.902;12.472;2022-10-16T08:10:28;5.85;;;3.83;;
26271;SDS011;13997;48.902;12.472;2022-10-16T08:12:57;6.10;;;4.13;;
26271;SDS011;13997;48.902;12.472;2022-10-16T08:15:24;6.22;;;3.13;;
26271;SDS011;13997;48.902;12.472;2022-10-16T10:17:57;8.38;;;1.65;;
26271;SDS011;13997;48.902;12.472;2022-10-16T10:22:49;3.53;;;1.77;;
26271;SDS011;13997;48.902;12.472;2022-10-16T10:30:41;3.30;;;1.60;;
26271;SDS011;13997;48.902;12.472;2022-10-16T10:46:34;4.22;;;1.52;;
26271;SDS011;13997;48.902;12.472;2022-10-16T10:49:16;2.03;;;1.50;;
26271;SDS011;13997;48.902;12.472;2022-10-16T10:56:56;1.98;;;1.27;;
26271;SDS011;13997;48.902;12.472;2022-10-16T11:02:25;5.32;;;1.98;;
26271;SDS011;13997;48.902;12.472;2022-10-16T11:04:54;2.53;;;1.80;;
26271;SDS011;13997;48.902;12.472;2022-10-16T11:07:28;4.43;;;1.88;;
26271;SDS011;13997;48.902;12.472;2022-10-16T11:09:56;2.80;;;1.80;;
26271;SDS011;13997;48.902;12.472;2022-10-16T11:12:30;4.32;;;1.85;;
26271;SDS011;13997;48.902;12.472;2022-10-16T11:17:33;3.10;;;2.10;;
26271;SDS011;13997;48.902;12.472;2022-10-16T11:20:04;2.67;;;1.83;;
26271;SDS011;13997;48.902;12.472;2022-10-16T11:22:37;4.20;;;2.10;;
26271;SDS011;13997;48.902;12.472;2022-10-16T11:25:18;4.45;;;1.88;;
26271;SDS011;13997;48.902;12.472;2022-10-16T11:30:22;4.40;;;2.10;;
26271;SDS011;13997;48.902;12.472;2022-10-16T11:35:57;6.13;;;2.55;;
26271;SDS011;13997;48.902;12.472;2022-10-16T11:38:24;4.18;;;1.80;;
26271;SDS011;13997;48.902;12.472;2022-10-16T11:40:52;4.53;;;2.15;;
26271;SDS011;13997;48.902;12.472;2022-10-16T11:43:24;3.22;;;1.90;;
26271;SDS011;13997;48.902;12.472;2022-10-16T11:45:52;4.75;;;1.90;;
26271;SDS011;13997;48.902;12.472;2022-10-16T11:50:55;4.38;;;2.00;;
26271;SDS011;13997;48.902;12.472;2022-10-16T11:55:50;3.92;;;1.75;;
26271;SDS011;13997;48.902;12.472;2022-10-16T12:00:45;7.55;;;2.15;;
26271;SDS011;13997;48.902;12.472;2022-10-16T12:03:33;3.00;;;1.98;;
26271;SDS011;13997;48.902;12.472;2022-10-16T12:08:30;4.57;;;2.08;;
26271;SDS011;13997;48.902;12.472;2022-10-16T12:13:43;7.97;;;2.22;;
26271;SDS011;13997;48.902;12.472;2022-10-16T12:18:42;2.53;;;2.00;;
26271;SDS011;13997;48.902;12.472;2022-10-16T12:21:11;5.72;;;2.05;;
26271;SDS011;13997;48.902;12.472;2022-10-16T12:23:50;5.20;;;1.90;;
26271;SDS011;13997;48.902;12.472;2022-10-16T12:26:26;3.97;;;1.92;;
26271;SDS011;13997;48.902;12.472;2022-10-16T12:28:55;4.00;;;2.60;;
26271;SDS011;13997;48.902;12.472;2022-10-16T12:31:23;2.75;;;1.90;;
26271;SDS011;13997;48.902;12.472;2022-10-16T12:33:55;10.77;;;2.15;;
26271;SDS011;13997;48.902;12.472;2022-10-16T12:36:29;6.82;;;2.30;;
26271;SDS011;13997;48.902;12.472;2022-10-16T12:38:56;4.28;;;1.80;;
26271;SDS011;13997;48.902;12.472;2022-10-16T12:43:53;4.25;;;2.28;;
26271;SDS011;13997;48.902;12.472;2022-10-16T12:46:21;4.43;;;2.13;;
26271;SDS011;13997;48.902;12.472;2022-10-16T12:48:47;6.97;;;2.13;;
26271;SDS011;13997;48.902;12.472;2022-10-16T12:54:03;7.45;;;2.45;;
26271;SDS011;13997;48.902;12.472;2022-10-16T12:56:40;6.57;;;2.22;;
26271;SDS011;13997;48.902;12.472;2022-10-16T13:06:56;2.88;;;2.30;;
26271;SDS011;13997;48.902;12.472;2022-10-16T13:09:29;8.77;;;2.50;;
26271;SDS011;13997;48.902;12.472;2022-10-16T13:17:22;10.52;;;2.53;;
26271;SDS011;13997;48.902;12.472;2022-10-16T13:19:57;4.10;;;2.72;;
26271;SDS011;13997;48.902;12.472;2022-10-16T13:22:44;4.60;;;3.05;;
26271;SDS011;13997;48.902;12.472;2022-10-16T13:32:36;6.35;;;2.80;;
26271;SDS011;13997;48.902;12.472;2022-10-16T13:35:02;6.60;;;2.85;;
26271;SDS011;13997;48.902;12.472;2022-10-16T13:37:29;11.77;;;3.00;;
26271;SDS011;13997;48.902;12.472;2022-10-16T13:42:56;7.25;;;3.00;;
26271;SDS011;13997;48.902;12.472;2022-10-16T13:45:25;7.38;;;2.92;;
26271;SDS011;13997;48.902;12.472;2022-10-16T13:48:01;4.78;;;3.60;;
26271;SDS011;13997;48.902;12.472;2022-10-16T13:50:27;9.55;;;3.60;;
26271;SDS011;13997;48.902;12.472;2022-10-16T13:53:03;5.47;;;3.25;;
26271;SDS011;13997;48.902;12.472;2022-10-16T13:55:29;7.28;;;3.90;;
26271;SDS011;13997;48.902;12.472;2022-10-16T13:58:05;4.78;;;3.33;;
26271;SDS011;13997;48.902;12.472;2022-10-16T14:00:31;11.90;;;4.05;;
26271;SDS011;13997;48.902;12.472;2022-10-16T14:03:04;5.32;;;3.60;;
26271;SDS011;13997;48.902;12.472;2022-10-16T14:05:31;5.28;;;3.35;;
26271;SDS011;13997;48.902;12.472;2022-10-16T14:07:57;7.20;;;4.05;;
26271;SDS011;13997;48.902;12.472;2022-10-16T14:10:27;6.40;;;3.88;;
26271;SDS011;13997;48.902;12.472;2022-10-16T14:13:03;7.45;;;3.55;;
26271;SDS011;13997;48.902;12.472;2022-10-16T14:15:32;7.20;;;3.95;;
26271;SDS011;13997;48.902;12.472;2022-10-16T14:18:00;7.63;;;4.00;;
26271;SDS011;13997;48.902;12.472;2022-10-16T14:20:28;9.50;;;3.72;;
26271;SDS011;13997;48.902;12.472;2022-10-16T14:22:58;7.35;;;3.90;;
26271;SDS011;13997;48.902;12.472;2022-10-16T14:25:26;9.25;;;4.00;;
26271;SDS011;13997;48.902;12.472;2022-10-16T14:28:35;8.25;;;3.95;;
26271;SDS011;13997;48.902;12.472;2022-10-16T14:30:55;5.45;;;3.85;;
26271;SDS011;13997;48.902;12.472;2022-10-16T14:33:24;9.88;;;3.88;;
26271;SDS011;13997;48.902;12.472;2022-10-16T14:36:01;5.97;;;4.10;;
26271;SDS011;13997;48.902;12.472;2022-10-16T14:38:27;4.50;;;3.60;;
26271;SDS011;13997;48.902;12.472;2022-10-16T14:40:54;7.75;;;4.03;;
26271;SDS011;13997;48.902;12.472;2022-10-16T14:43:29;9.32;;;4.47;;
26271;SDS011;13997;48.902;12.472;2022-10-16T14:45:59;10.73;;;5.13;;
26271;SDS011;13997;48.902;12.472;2022-10-16T14:48:27;12.55;;;4.40;;
26271;SDS011;13997;48.902;12.472;2022-10-16T14:50:53;7.82;;;4.72;;
26271;SDS011;13997;48.902;12.472;2022-10-16T14:53:19;8.45;;;4.50;;
26271;SDS011;13997;48.902;12.472;2022-10-16T14:55:45;8.90;;;5.28;;
26271;SDS011;13997;48.902;12.472;2022-10-16T14:58:14;10.23;;;5.10;;
26271;SDS011;13997;48.902;12.472;2022-10-16T15:00:43;9.93;;;5.27;;
26271;SDS011;13997;48.902;12.472;2022-10-16T15:05:40;7.95;;;5.75;;
26271;SDS011;13997;48.902;12.472;2022-10-16T15:08:06;11.07;;;5.53;;
26271;SDS011;13997;48.902;12.472;2022-10-16T15:10:33;9.80;;;4.90;;
26271;SDS011;13997;48.902;12.472;2022-10-16T15:13:01;10.68;;;5.03;;
26271;SDS011;13997;48.902;12.472;2022-10-16T15:18:02;10.45;;;5.05;;
26271;SDS011;13997;48.902;12.472;2022-10-16T15:20:32;7.45;;;4.15;;
26271;SDS011;13997;48.902;12.472;2022-10-16T15:23:18;15.43;;;5.07;;
26271;SDS011;13997;48.902;12.472;2022-10-16T15:25:51;11.32;;;5.15;;
26271;SDS011;13997;48.902;12.472;2022-10-16T15:28:18;7.95;;;4.78;;
26271;SDS011;13997;48.902;12.472;2022-10-16T15:30:45;7.72;;;4.75;;
26271;SDS011;13997;48.902;12.472;2022-10-16T15:33:13;14.00;;;5.03;;
26271;SDS011;13997;48.902;12.472;2022-10-16T15:35:39;8.43;;;5.20;;
26271;SDS011;13997;48.902;12.472;2022-10-16T15:38:05;10.20;;;5.88;;
26271;SDS011;13997;48.902;12.472;2022-10-16T15:40:31;8.73;;;5.07;;
26271;SDS011;13997;48.902;12.472;2022-10-16T15:42:57;10.30;;;4.78;;
26271;SDS011;13997;48.902;12.472;2022-10-16T15:45:23;13.45;;;5.00;;
26271;SDS011;13997;48.902;12.472;2022-10-16T15:47:49;10.02;;;4.80;;
26271;SDS011;13997;48.902;12.472;2022-10-16T15:50:16;10.45;;;5.47;;
26271;SDS011;13997;48.902;12.472;2022-10-16T15:52:42;13.18;;;8.25;;
26271;SDS011;13997;48.902;12.472;2022-10-16T15:55:08;23.30;;;11.57;;
26271;SDS011;13997;48.902;12.472;2022-10-16T15:57:38;26.88;;;16.05;;
26271;SDS011;13997;48.902;12.472;2022-10-16T16:00:10;21.15;;;13.35;;
26271;SDS011;13997;48.902;12.472;2022-10-16T16:02:49;15.13;;;10.25;;
26271;SDS011;13997;48.902;12.472;2022-10-16T16:05:16;19.73;;;9.93;;
26271;SDS011;13997;48.902;12.472;2022-10-16T16:07:42;33.25;;;21.63;;
26271;SDS011;13997;48.902;12.472;2022-10-16T16:10:08;47.15;;;29.40;;
26271;SDS011;13997;48.902;12.472;2022-10-16T16:12:35;39.55;;;24.77;;
26271;SDS011;13997;48.902;12.472;2022-10-16T16:15:02;18.20;;;12.00;;
26271;SDS011;13997;48.902;12.472;2022-10-16T16:17:29;14.68;;;8.18;;
26271;SDS011;13997;48.902;12.472;2022-10-16T16:19:56;15.43;;;6.78;;
26271;SDS011;13997;48.902;12.472;2022-10-16T16:22:22;10.85;;;6.65;;
26271;SDS011;13997;48.902;12.472;2022-10-16T16:24:50;17.48;;;8.82;;
26271;SDS011;13997;48.902;12.472;2022-10-16T16:27:16;10.98;;;7.05;;
26271;SDS011;13997;48.902;12.472;2022-10-16T16:29:44;11.02;;;6.25;;
26271;SDS011;13997;48.902;12.472;2022-10-16T16:32:10;12.52;;;7.28;;
26271;SDS011;13997;48.902;12.472;2022-10-16T16:34:36;12.75;;;7.22;;
26271;SDS011;13997;48.902;12.472;2022-10-16T16:37:05;10.45;;;6.55;;
26271;SDS011;13997;48.902;12.472;2022-10-16T16:39:33;11.65;;;6.18;;
26271;SDS011;13997;48.902;12.472;2022-10-16T16:42:02;10.60;;;5.88;;
26271;SDS011;13997;48.902;12.472;2022-10-16T16:44:29;13.32;;;6.25;;
26271;SDS011;13997;48.902;12.472;2022-10-16T16:46:55;11.93;;;5.82;;
26271;SDS011;13997;48.902;12.472;2022-10-16T16:49:21;12.00;;;5.93;;
26271;SDS011;13997;48.902;12.472;2022-10-16T16:51:47;9.82;;;5.88;;
26271;SDS011;13997;48.902;12.472;2022-10-16T16:54:13;9.45;;;5.95;;
26271;SDS011;13997;48.902;12.472;2022-10-16T16:56:39;12.55;;;6.03;;
26271;SDS011;13997;48.902;12.472;2022-10-16T16:59:15;14.38;;;6.50;;
26271;SDS011;13997;48.902;12.472;2022-10-16T17:01:42;13.25;;;7.82;;
26271;SDS011;13997;48.902;12.472;2022-10-16T17:04:08;15.60;;;9.20;;
26271;SDS011;13997;48.902;12.472;2022-10-16T17:06:35;16.17;;;8.88;;
26271;SDS011;13997;48.902;12.472;2022-10-16T17:09:07;18.25;;;9.30;;
26271;SDS011;13997;48.902;12.472;2022-10-16T17:11:34;13.07;;;7.35;;
26271;SDS011;13997;48.902;12.472;2022-10-16T17:14:04;12.35;;;6.47;;
26271;SDS011;13997;48.902;12.472;2022-10-16T17:16:31;12.60;;;6.03;;
26271;SDS011;13997;48.902;12.472;2022-10-16T17:18:58;18.20;;;6.30;;
26271;SDS011;13997;48.902;12.472;2022-10-16T17:21:27;10.60;;;5.72;;
26271;SDS011;13997;48.902;12.472;2022-10-16T17:23:54;17.50;;;6.65;;
26271;SDS011;13997;48.902;12.472;2022-10-16T17:26:23;12.73;;;6.63;;
26271;SDS011;13997;48.902;12.472;2022-10-16T17:28:53;25.05;;;14.20;;
26271;SDS011;13997;48.902;12.472;2022-10-16T17:31:20;18.17;;;11.15;;
26271;SDS011;13997;48.902;12.472;2022-10-16T17:33:47;12.85;;;7.95;;
26271;SDS011;13997;48.902;12.472;2022-10-16T17:36:13;11.80;;;7.32;;
26271;SDS011;13997;48.902;12.472;2022-10-16T17:38:40;12.63;;;7.13;;
26271;SDS011;13997;48.902;12.472;2022-10-16T17:41:12;13.30;;;7.03;;
26271;SDS011;13997;48.902;12.472;2022-10-16T17:43:39;12.05;;;6.90;;
26271;SDS011;13997;48.902;12.472;2022-10-16T17:46:06;13.48;;;7.70;;
26271;SDS011;13997;48.902;12.472;2022-10-16T17:48:42;12.85;;;7.30;;
26271;SDS011;13997;48.902;12.472;2022-10-16T17:51:09;13.10;;;7.38;;
26271;SDS011;13997;48.902;12.472;2022-10-16T17:53:36;14.48;;;7.65;;
26271;SDS011;13997;48.902;12.472;2022-10-16T17:56:05;12.73;;;7.80;;
26271;SDS011;13997;48.902;12.472;2022-10-16T17:58:32;18.40;;;7.35;;
26271;SDS011;13997;48.902;12.472;2022-10-16T18:00:58;11.32;;;6.80;;
26271;SDS011;13997;48.902;12.472;2022-10-16T18:03:25;14.35;;;7.35;;
26271;SDS011;13997;48.902;12.472;2022-10-16T18:05:51;13.60;;;7.13;;
26271;SDS011;13997;48.902;12.472;2022-10-16T19:53:38;13.10;;;6.63;;
26271;SDS011;13997;48.902;12.472;2022-10-16T19:58:44;12.65;;;6.32;;
26271;SDS011;13997;48.902;12.472;2022-10-16T20:01:15;11.85;;;6.95;;
26271;SDS011;13997;48.902;12.472;2022-10-16T20:03:44;13.43;;;7.75;;
26271;SDS011;13997;48.902;12.472;2022-10-16T20:06:21;11.15;;;7.22;;
26271;SDS011;13997;48.902;12.472;2022-10-16T20:08:53;13.18;;;6.95;;
26271;SDS011;13997;48.902;12.472;2022-10-16T20:11:29;18.92;;;7.38;;
26271;SDS011;13997;48.902;12.472;2022-10-16T20:14:18;14.45;;;7.00;;
26271;SDS011;13997;48.902;12.472;2022-10-16T20:17:02;13.00;;;6.82;;
26271;SDS011;13997;48.902;12.472;2022-10-16T20:19:38;14.05;;;6.72;;
26271;SDS011;13997;48.902;12.472;2022-10-16T20:22:06;12.20;;;6.40;;
26271;SDS011;13997;48.902;12.472;2022-10-16T20:24:35;11.32;;;7.30;;
26271;SDS011;13997;48.902;12.472;2022-10-16T20:27:06;12.18;;;6.88;;
26271;SDS011;13997;48.902;12.472;2022-10-16T20:29:35;15.95;;;7.30;;
26271;SDS011;13997;48.902;12.472;2022-10-16T20:32:07;14.63;;;7.38;;
26271;SDS011;13997;48.902;12.472;2022-10-16T20:34:47;13.10;;;7.05;;
26271;SDS011;13997;48.902;12.472;2022-10-16T20:37:14;15.55;;;6.95;;
26271;SDS011;13997;48.902;12.472;2022-10-16T20:39:44;13.45;;;6.55;;
26271;SDS011;13997;48.902;12.472;2022-10-16T20:42:28;11.13;;;6.07;;
26271;SDS011;13997;48.902;12.472;2022-10-16T20:45:03;11.60;;;6.43;;
26271;SDS011;13997;48.902;12.472;2022-10-16T20:47:31;12.18;;;6.90;;
26271;SDS011;13997;48.902;12.472;2022-10-16T20:49:59;12.80;;;6.90;;
26271;SDS011;13997;48.902;12.472;2022-10-16T20:52:25;17.30;;;7.13;;
26271;SDS011;13997;48.902;12.472;2022-10-16T20:54:51;16.50;;;6.53;;
26271;SDS011;13997;48.902;12.472;2022-10-16T20:57:17;9.43;;;6.18;;
26271;SDS011;13997;48.902;12.472;2022-10-16T20:59:43;10.25;;;6.93;;
26271;SDS011;13997;48.902;12.472;2022-10-16T21:02:10;10.48;;;6.03;;
26271;SDS011;13997;48.902;12.472;2022-10-16T21:04:37;13.52;;;6.75;;
26271;SDS011;13997;48.902;12.472;2022-10-16T21:07:03;14.30;;;7.30;;
26271;SDS011;13997;48.902;12.472;2022-10-16T21:09:29;11.63;;;6.05;;
26271;SDS011;13997;48.902;12.472;2022-10-16T21:11:55;13.45;;;5.90;;
26271;SDS011;13997;48.902;12.472;2022-10-16T21:14:23;7.13;;;5.28;;
26271;SDS011;13997;48.902;12.472;2022-10-16T21:16:54;16.80;;;6.30;;
26271;SDS011;13997;48.902;12.472;2022-10-16T21:19:20;14.43;;;6.10;;
26271;SDS011;13997;48.902;12.472;2022-10-16T21:21:46;14.38;;;6.65;;
26271;SDS011;13997;48.902;12.472;2022-10-16T21:24:12;11.35;;;6.85;;
26271;SDS011;13997;48.902;12.472;2022-10-16T21:26:42;10.00;;;6.43;;
26271;SDS011;13997;48.902;12.472;2022-10-16T21:29:10;15.48;;;6.40;;
26271;SDS011;13997;48.902;12.472;2022-10-16T21:31:39;17.13;;;6.32;;
26271;SDS011;13997;48.902;12.472;2022-10-16T21:34:05;13.98;;;6.05;;
26271;SDS011;13997;48.902;12.472;2022-10-16T21:36:35;15.00;;;6.32;;
26271;SDS011;13997;48.902;12.472;2022-10-16T21:39:02;12.60;;;6.35;;
26271;SDS011;13997;48.902;12.472;2022-10-16T21:41:33;16.33;;;6.07;;
26271;SDS011;13997;48.902;12.472;2022-10-16T21:43:59;10.30;;;5.50;;
26271;SDS011;13997;48.902;12.472;2022-10-16T21:46:29;10.35;;;6.15;;
26271;SDS011;13997;48.902;12.472;2022-10-16T21:48:56;19.95;;;6.53;;
26271;SDS011;13997;48.902;12.472;2022-10-16T21:51:26;18.65;;;6.22;;
26271;SDS011;13997;48.902;12.472;2022-10-16T21:53:56;9.23;;;6.15;;
26271;SDS011;13997;48.902;12.472;2022-10-16T21:56:22;15.13;;;6.00;;
26271;SDS011;13997;48.902;12.472;2022-10-16T21:58:48;11.23;;;6.22;;
26271;SDS011;13997;48.902;12.472;2022-10-16T22:01:15;12.02;;;6.60;;
26271;SDS011;13997;48.902;12.472;2022-10-16T22:03:42;14.15;;;6.32;;
26271;SDS011;13997;48.902;12.472;2022-10-16T22:06:08;17.58;;;5.80;;
26271;SDS011;13997;48.902;12.472;2022-10-16T22:08:35;14.55;;;6.30;;
26271;SDS011;13997;48.902;12.472;2022-10-16T22:11:06;17.38;;;6.70;;
26271;SDS011;13997;48.902;12.472;2022-10-16T22:13:32;12.77;;;6.63;;
26271;SDS011;13997;48.902;12.472;2022-10-16T22:15:58;14.32;;;6.68;;
26271;SDS011;13997;48.902;12.472;2022-10-16T22:18:24;13.98;;;6.45;;
26271;SDS011;13997;48.902;12.472;2022-10-16T22:20:50;13.13;;;6.43;;
26271;SDS011;13997;48.902;12.472;2022-10-16T22:23:16;11.82;;;6.82;;
26271;SDS011;13997;48.902;12.472;2022-10-16T22:25:43;10.30;;;6.38;;
26271;SDS011;13997;48.902;12.472;2022-10-16T22:28:11;15.85;;;6.80;;
26271;SDS011;13997;48.902;12.472;2022-10-16T22:30:38;12.82;;;6.43;;
26271;SDS011;13997;48.902;12.472;2022-10-16T22:33:05;9.88;;;6.38;;
26271;SDS011;13997;48.902;12.472;2022-10-16T22:35:38;13.45;;;6.45;;
26271;SDS011;13997;48.902;12.472;2022-10-16T22:38:04;16.38;;;6.55;;
26271;SDS011;13997;48.902;12.472;2022-10-16T22:40:32;19.35;;;7.18;;
26271;SDS011;13997;48.902;12.472;2022-10-16T22:42:58;13.95;;;6.55;;
26271;SDS011;13997;48.902;12.472;2022-10-16T22:45:27;11.32;;;6.40;;
26271;SDS011;13997;48.902;12.472;2022-10-16T22:47:53;14.35;;;7.65;;
26271;SDS011;13997;48.902;12.472;2022-10-16T22:50:22;14.32;;;6.68;;
26271;SDS011;13997;48.902;12.472;2022-10-16T22:52:48;13.63;;;6.53;;
26271;SDS011;13997;48.902;12.472;2022-10-16T22:55:14;11.82;;;7.43;;
26271;SDS011;13997;48.902;12.472;2022-10-16T22:57:42;11.27;;;6.97;;
26271;SDS011;13997;48.902;12.472;2022-10-16T23:00:09;20.95;;;6.95;;
26271;SDS011;13997;48.902;12.472;2022-10-16T23:02:36;15.13;;;7.05;;
26271;SDS011;13997;48.902;12.472;2022-10-16T23:05:02;16.77;;;7.50;;
26271;SDS011;13997;48.902;12.472;2022-10-16T23:07:30;13.55;;;7.15;;
26271;SDS011;13997;48.902;12.472;2022-10-16T23:09:56;21.15;;;7.25;;
26271;SDS011;13997;48.902;12.472;2022-10-16T23:12:22;12.25;;;6.72;;
26271;SDS011;13997;48.902;12.472;2022-10-16T23:14:55;13.85;;;7.10;;
26271;SDS011;13997;48.902;12.472;2022-10-16T23:17:21;17.30;;;7.72;;
26271;SDS011;13997;48.902;12.472;2022-10-16T23:19:47;11.25;;;7.22;;
26271;SDS011;13997;48.902;12.472;2022-10-16T23:22:13;10.18;;;7.07;;
26271;SDS011;13997;48.902;12.472;2022-10-16T23:24:39;17.98;;;7.25;;
26271;SDS011;13997;48.902;12.472;2022-10-16T23:27:05;17.55;;;6.57;;
26271;SDS011;13997;48.902;12.472;2022-10-16T23:29:31;10.90;;;6.95;;
26271;SDS011;13997;48.902;12.472;2022-10-16T23:31:57;12.77;;;7.07;;
26271;SDS011;13997;48.902;12.472;2022-10-16T23:34:23;14.30;;;6.75;;
26271;SDS011;13997;48.902;12.472;2022-10-16T23:36:49;15.55;;;6.47;;
26271;SDS011;13997;48.902;12.472;2022-10-16T23:39:16;12.23;;;6.35;;
26271;SDS011;13997;48.902;12.472;2022-10-16T23:41:42;17.15;;;6.95;;
26271;SDS011;13997;48.902;12.472;2022-10-16T23:44:08;14.25;;;6.20;;
26271;SDS011;13997;48.902;12.472;2022-10-16T23:46:35;13.05;;;7.10;;
26271;SDS011;13997;48.902;12.472;2022-10-16T23:49:01;13.82;;;7.13;;
26271;SDS011;13997;48.902;12.472;2022-10-16T23:51:27;16.13;;;7.43;;
26271;SDS011;13997;48.902;12.472;2022-10-16T23:53:53;19.40;;;7.20;;
26271;SDS011;13997;48.902;12.472;2022-10-16T23:56:19;24.08;;;7.43;;
26271;SDS011;13997;48.902;12.472;2022-10-16T23:58:47;12.02;;;7.57;;
